createdAt,value
2023-01-01T00:02:00.332Z,86.30
2023-01-01T00:04:27.190Z,86.31
2023-01-01T00:06:53.892Z,86.15
2023-01-01T00:09:39.281Z,86.20
2023-01-01T00:12:06.204Z,86.28
2023-01-01T00:14:33.091Z,86.17
2023-01-01T00:17:00.080Z,86.03
2023-01-01T00:19:26.887Z,86.31
2023-01-01T00:21:54.053Z,86.16
2023-01-01T00:24:20.774Z,86.12
2023-01-01T00:26:47.607Z,86.08
2023-01-01T00:29:14.282Z,86.13
2023-01-01T00:31:41.105Z,86.03
2023-01-01T00:34:10.185Z,86.15
2023-01-01T00:36:37.009Z,86.11
2023-01-01T00:39:03.780Z,86.11
2023-01-01T00:41:30.659Z,86.25
2023-01-01T00:43:57.425Z,86.16
2023-01-01T00:46:24.233Z,86.26
2023-01-01T00:48:50.940Z,86.29
2023-01-01T00:51:17.626Z,86.55
2023-01-01T00:53:44.333Z,86.62
2023-01-01T00:56:11.127Z,86.69
2023-01-01T00:58:37.819Z,86.66
2023-01-01T01:01:04.912Z,86.45
2023-01-01T01:03:31.719Z,86.54
2023-01-01T01:06:00.000Z,86.34
2023-01-01T01:08:30.689Z,86.34
2023-01-01T01:11:15.182Z,85.95
2023-01-01T01:13:42.637Z,85.94
2023-01-01T01:16:10.761Z,85.83
2023-01-01T01:18:37.594Z,86.00
2023-01-01T01:21:04.417Z,85.72
2023-01-01T01:23:31.180Z,85.66
2023-01-01T01:26:11.713Z,85.56
2023-01-01T01:28:42.499Z,85.54
2023-01-01T01:31:12.731Z,85.53
2023-01-01T01:33:39.750Z,85.64
2023-01-01T01:36:06.927Z,85.53
2023-01-01T01:38:33.711Z,85.39
2023-01-01T01:41:00.709Z,85.37
2023-01-01T01:43:33.463Z,85.31
2023-01-01T01:46:06.268Z,85.23
2023-01-01T01:48:39.307Z,85.12
2023-01-01T01:51:06.637Z,85.14
2023-01-01T01:53:35.401Z,85.21
2023-01-01T01:56:06.626Z,85.11
2023-01-01T01:58:34.271Z,85.33
2023-01-01T02:01:01.099Z,85.10
2023-01-01T02:03:28.027Z,85.05
2023-01-01T02:05:54.814Z,85.02
2023-01-01T02:08:21.790Z,84.99
2023-01-01T02:10:48.535Z,84.99
2023-01-01T02:13:15.311Z,84.72
2023-01-01T02:15:51.164Z,84.72
2023-01-01T02:18:21.463Z,84.43
2023-01-01T02:20:59.695Z,84.59
2023-01-01T02:23:44.829Z,84.47
2023-01-01T02:26:23.502Z,84.23
2023-01-01T02:28:50.397Z,84.22
2023-01-01T02:31:23.172Z,84.17
2023-01-01T02:33:52.465Z,84.07
2023-01-01T02:36:20.175Z,83.77
2023-01-01T02:38:48.313Z,83.79
2023-01-01T02:41:23.491Z,83.75
2023-01-01T02:43:51.264Z,83.83
2023-01-01T02:48:44.906Z,83.89
2023-01-01T02:51:14.589Z,83.51
2023-01-01T02:53:56.019Z,83.52
2023-01-01T02:56:25.494Z,83.74
2023-01-01T02:59:31.935Z,83.81
2023-01-01T03:02:17.155Z,83.79
2023-01-01T03:05:10.767Z,83.95
2023-01-01T03:07:56.211Z,83.92
2023-01-01T03:10:28.794Z,84.00
2023-01-01T03:13:11.111Z,84.33
2023-01-01T03:16:07.083Z,84.30
2023-01-01T03:18:49.025Z,84.45
2023-01-01T03:23:50.038Z,84.86
2023-01-01T03:26:17.848Z,84.81
2023-01-01T03:28:48.356Z,84.82
2023-01-01T03:31:18.169Z,85.07
2023-01-01T03:33:51.597Z,85.06
2023-01-01T03:36:22.507Z,84.99
2023-01-01T03:38:51.657Z,85.04
2023-01-01T03:41:18.380Z,85.16
2023-01-01T03:43:45.589Z,85.23
2023-01-01T03:46:13.750Z,85.45
2023-01-01T03:49:03.701Z,85.33
2023-01-01T03:51:49.726Z,85.24
2023-01-01T03:54:35.222Z,85.51
2023-01-01T03:57:11.698Z,85.39
2023-01-01T03:59:43.285Z,85.45
2023-01-01T04:02:12.586Z,85.65
2023-01-01T04:04:39.302Z,85.45
2023-01-01T04:07:14.730Z,85.64
2023-01-01T04:09:44.231Z,85.46
2023-01-01T04:12:11.130Z,85.75
2023-01-01T04:14:40.601Z,85.58
2023-01-01T04:17:09.171Z,85.64
2023-01-01T04:19:36.034Z,85.61
2023-01-01T04:22:03.418Z,85.56
2023-01-01T04:24:30.634Z,85.59
2023-01-01T04:26:57.502Z,85.54
2023-01-01T04:29:24.373Z,85.76
2023-01-01T04:31:51.076Z,85.60
2023-01-01T04:34:17.999Z,85.52
2023-01-01T04:36:45.055Z,85.46
2023-01-01T04:39:11.874Z,85.33
2023-01-01T04:41:38.621Z,85.50
2023-01-01T04:44:05.445Z,85.47
2023-01-01T04:46:32.164Z,85.15
2023-01-01T04:48:59.041Z,85.03
2023-01-01T04:51:25.881Z,84.89
2023-01-01T04:53:52.737Z,84.71
2023-01-01T04:56:21.059Z,84.66
2023-01-01T04:58:48.449Z,84.61
2023-01-01T05:01:17.286Z,84.26
2023-01-01T05:03:44.225Z,84.25
2023-01-01T05:06:12.462Z,84.19
2023-01-01T05:08:40.447Z,83.99
2023-01-01T05:11:08.672Z,84.00
2023-01-01T05:13:36.229Z,83.97
2023-01-01T05:16:03.992Z,84.02
2023-01-01T05:18:30.943Z,83.85
2023-01-01T05:21:20.565Z,83.59
2023-01-01T05:23:47.743Z,83.88
2023-01-01T05:26:20.556Z,83.62
2023-01-01T05:28:47.668Z,83.82
2023-01-01T05:31:15.464Z,83.66
2023-01-01T05:33:43.403Z,83.79
2023-01-01T05:36:14.995Z,83.74
2023-01-01T05:38:42.098Z,84.02
2023-01-01T05:41:10.005Z,84.05
2023-01-01T05:43:37.094Z,84.18
2023-01-01T05:46:05.334Z,84.18
2023-01-01T05:48:32.781Z,84.25
2023-01-01T05:51:06.868Z,84.60
2023-01-01T05:53:34.333Z,84.32
2023-01-01T05:56:01.437Z,84.63
2023-01-01T05:58:29.217Z,84.64
2023-01-01T06:00:55.921Z,84.60
2023-01-01T06:03:22.943Z,84.77
2023-01-01T06:05:49.701Z,85.03
2023-01-01T06:08:16.495Z,84.94
2023-01-01T06:10:43.248Z,84.90
2023-01-01T06:13:16.920Z,85.00
2023-01-01T06:15:44.333Z,85.00
2023-01-01T06:18:14.001Z,85.18
2023-01-01T06:20:42.177Z,85.17
2023-01-01T06:23:09.039Z,85.14
2023-01-01T06:25:37.240Z,85.15
2023-01-01T06:28:04.174Z,85.12
2023-01-01T06:30:45.995Z,85.23
2023-01-01T06:33:14.373Z,85.18
2023-01-01T06:35:42.055Z,85.33
2023-01-01T06:38:43.841Z,85.17
2023-01-01T06:41:13.471Z,85.18
2023-01-01T06:43:41.676Z,85.24
2023-01-01T06:46:27.104Z,84.93
2023-01-01T06:48:57.536Z,85.16
2023-01-01T06:51:26.592Z,85.23
2023-01-01T06:53:54.291Z,85.29
2023-01-01T06:56:22.141Z,85.16
2023-01-01T06:58:49.111Z,85.22
2023-01-01T07:01:20.194Z,85.03
2023-01-01T07:03:54.198Z,85.25
2023-01-01T07:09:08.037Z,85.06
2023-01-01T07:11:38.910Z,85.14
2023-01-01T07:14:06.099Z,84.92
2023-01-01T07:16:34.278Z,84.83
2023-01-01T07:19:01.474Z,85.02
2023-01-01T07:21:37.975Z,85.08
2023-01-01T07:24:06.214Z,84.90
2023-01-01T07:26:36.646Z,85.12
2023-01-01T07:29:08.033Z,85.24
2023-01-01T07:31:42.618Z,85.23
2023-01-01T07:34:12.809Z,85.21
2023-01-01T07:36:41.398Z,85.08
2023-01-01T07:39:08.419Z,84.87
2023-01-01T07:41:35.374Z,84.88
2023-01-01T07:44:02.973Z,85.00
2023-01-01T07:46:29.977Z,84.88
2023-01-01T07:48:58.430Z,84.66
2023-01-01T07:51:25.351Z,84.59
2023-01-01T07:53:52.113Z,84.67
2023-01-01T07:56:23.189Z,84.72
2023-01-01T07:58:50.617Z,84.41
2023-01-01T08:01:19.302Z,84.45
2023-01-01T08:07:08.821Z,84.30
2023-01-01T08:09:36.500Z,84.48
2023-01-01T08:12:05.440Z,84.39
2023-01-01T08:14:33.530Z,84.79
2023-01-01T08:17:01.094Z,84.57
2023-01-01T08:19:28.118Z,84.55
2023-01-01T08:21:56.103Z,84.89
2023-01-01T08:24:23.363Z,84.89
2023-01-01T08:26:51.372Z,85.07
2023-01-01T08:29:18.227Z,85.26
2023-01-01T08:31:46.500Z,85.29
2023-01-01T08:34:14.176Z,85.10
2023-01-01T08:36:42.225Z,85.46
2023-01-01T08:39:10.303Z,85.36
2023-01-01T08:41:38.131Z,85.46
2023-01-01T08:44:06.107Z,85.39
2023-01-01T08:46:33.260Z,85.41
2023-01-01T08:49:00.003Z,85.49
2023-01-01T08:51:28.162Z,85.40
2023-01-01T08:53:55.258Z,85.06
2023-01-01T08:56:23.413Z,85.06
2023-01-01T08:58:50.262Z,85.10
2023-01-01T09:01:22.534Z,84.80
2023-01-01T09:03:50.291Z,84.62
2023-01-01T09:06:19.500Z,84.74
2023-01-01T09:08:46.316Z,85.01
2023-01-01T09:11:25.094Z,84.71
2023-01-01T09:13:52.278Z,84.71
2023-01-01T09:16:19.287Z,84.57
2023-01-01T09:18:46.132Z,84.59
2023-01-01T09:21:13.335Z,84.48
2023-01-01T09:23:41.549Z,84.21
2023-01-01T09:26:10.472Z,84.19
2023-01-01T09:28:38.751Z,84.21
2023-01-01T09:31:06.580Z,84.10
2023-01-01T09:33:34.761Z,84.07
2023-01-01T09:36:20.152Z,83.70
2023-01-01T09:38:51.009Z,83.65
2023-01-01T09:41:37.142Z,83.51
2023-01-01T09:44:09.787Z,82.95
2023-01-01T09:46:37.965Z,82.96
2023-01-01T09:49:10.862Z,82.87
2023-01-01T09:51:48.758Z,82.37
2023-01-01T09:54:37.928Z,82.47
2023-01-01T09:57:14.826Z,81.94
2023-01-01T09:59:45.305Z,81.90
2023-01-01T10:02:31.190Z,81.48
2023-01-01T10:05:23.887Z,81.38
2023-01-01T10:08:00.760Z,81.21
2023-01-01T10:10:51.291Z,81.12
2023-01-01T10:13:39.459Z,80.75
2023-01-01T10:16:19.230Z,80.64
2023-01-01T10:18:52.462Z,80.33
2023-01-01T10:21:46.564Z,80.18
2023-01-01T10:24:25.711Z,80.08
2023-01-01T10:26:54.348Z,80.15
2023-01-01T10:29:31.804Z,79.80
2023-01-01T10:32:06.467Z,79.85
2023-01-01T10:34:34.847Z,79.99
2023-01-01T10:37:02.841Z,79.99
2023-01-01T10:39:30.199Z,79.93
2023-01-01T10:42:00.461Z,79.86
2023-01-01T10:44:30.156Z,79.68
2023-01-01T10:46:59.522Z,79.60
2023-01-01T10:49:26.345Z,79.74
2023-01-01T10:51:55.020Z,79.64
2023-01-01T10:54:40.568Z,79.49
2023-01-01T10:57:22.825Z,79.34
2023-01-01T10:59:54.464Z,79.49
2023-01-01T11:02:28.501Z,79.42
2023-01-01T11:05:19.273Z,79.30
2023-01-01T11:07:48.682Z,79.32
2023-01-01T11:10:22.843Z,79.34
2023-01-01T11:13:10.063Z,79.48
2023-01-01T11:15:41.628Z,79.60
2023-01-01T11:18:21.034Z,79.55
2023-01-01T11:20:58.774Z,79.57
2023-01-01T11:23:34.159Z,79.28
2023-01-01T11:26:18.810Z,79.15
2023-01-01T11:29:02.173Z,78.70
2023-01-01T11:31:34.160Z,78.57
2023-01-01T11:34:01.735Z,78.75
2023-01-01T11:36:32.719Z,78.49
2023-01-01T11:39:18.317Z,78.31
2023-01-01T11:41:48.146Z,78.34
2023-01-01T11:44:25.493Z,78.41
2023-01-01T11:46:52.742Z,78.49
2023-01-01T11:49:23.961Z,78.61
2023-01-01T11:51:52.307Z,78.58
2023-01-01T11:54:38.194Z,78.58
2023-01-01T11:57:25.745Z,78.67
2023-01-01T12:00:07.525Z,78.66
2023-01-01T12:02:49.439Z,78.98
2023-01-01T12:05:26.684Z,78.47
2023-01-01T12:07:56.166Z,78.42
2023-01-01T12:10:46.736Z,77.96
2023-01-01T12:13:28.272Z,77.81
2023-01-01T12:16:07.222Z,77.74
2023-01-01T12:18:48.578Z,77.94
2023-01-01T12:21:25.754Z,77.87
2023-01-01T12:23:53.604Z,78.01
2023-01-01T12:26:32.443Z,78.00
2023-01-01T12:29:18.104Z,78.00
2023-01-01T12:32:04.351Z,78.12
2023-01-01T12:34:42.147Z,78.22
2023-01-01T12:37:27.714Z,78.41
2023-01-01T12:39:55.023Z,78.42
2023-01-01T12:42:40.377Z,78.33
2023-01-01T12:45:16.351Z,78.74
2023-01-01T12:47:49.334Z,78.71
2023-01-01T12:50:36.883Z,78.77
2023-01-01T12:53:11.910Z,78.74
2023-01-01T12:55:57.573Z,78.99
2023-01-01T12:58:38.457Z,79.08
2023-01-01T13:01:39.354Z,79.06
2023-01-01T13:04:20.164Z,79.11
2023-01-01T13:07:03.944Z,79.18
2023-01-01T13:09:36.019Z,79.27
2023-01-01T13:12:11.193Z,79.35
2023-01-01T13:14:46.049Z,79.26
2023-01-01T13:17:29.478Z,79.26
2023-01-01T13:20:00.010Z,79.25
2023-01-01T13:22:27.685Z,79.38
2023-01-01T13:25:18.093Z,79.38
2023-01-01T13:28:05.903Z,79.53
2023-01-01T13:30:40.017Z,79.34
2023-01-01T13:33:27.175Z,79.35
2023-01-01T13:36:13.007Z,79.37
2023-01-01T13:38:58.992Z,79.40
2023-01-01T13:41:26.643Z,79.37
2023-01-01T13:43:59.531Z,79.20
2023-01-01T13:46:32.637Z,79.14
2023-01-01T13:49:05.429Z,79.15
2023-01-01T13:52:04.672Z,79.05
2023-01-01T13:54:47.505Z,79.08
2023-01-01T13:57:30.943Z,79.14
2023-01-01T14:00:16.548Z,78.97
2023-01-01T14:02:47.800Z,78.97
2023-01-01T14:05:19.764Z,78.98
2023-01-01T14:07:52.290Z,79.00
2023-01-01T14:10:21.284Z,78.99
2023-01-01T14:12:48.238Z,79.06
2023-01-01T14:15:29.506Z,78.83
2023-01-01T14:18:27.190Z,78.91
2023-01-01T14:20:54.455Z,78.98
2023-01-01T14:23:34.768Z,78.98
2023-01-01T14:26:03.664Z,79.11
2023-01-01T14:28:32.726Z,79.17
2023-01-01T14:31:05.600Z,79.29
2023-01-01T14:33:37.337Z,79.47
2023-01-01T14:36:05.746Z,79.27
2023-01-01T14:38:33.614Z,79.53
2023-01-01T14:41:00.774Z,79.62
2023-01-01T14:43:28.766Z,79.77
2023-01-01T14:45:56.028Z,79.83
2023-01-01T14:48:23.049Z,80.02
2023-01-01T14:50:52.302Z,80.08
2023-01-01T14:53:27.067Z,80.07
2023-01-01T14:55:55.135Z,80.19
2023-01-01T14:58:24.644Z,80.18
2023-01-01T15:00:53.262Z,80.17
2023-01-01T15:03:22.809Z,80.32
2023-01-01T15:06:01.345Z,80.33
2023-01-01T15:08:29.885Z,80.29
2023-01-01T15:10:56.966Z,80.34
2023-01-01T15:13:26.473Z,80.41
2023-01-01T15:15:55.659Z,80.55
2023-01-01T15:18:36.786Z,80.52
2023-01-01T15:21:15.901Z,80.64
2023-01-01T15:23:50.151Z,80.60
2023-01-01T15:26:25.026Z,80.63
2023-01-01T15:28:51.828Z,80.51
2023-01-01T15:31:20.145Z,80.66
2023-01-01T15:33:48.455Z,80.78
2023-01-01T15:36:17.084Z,80.93
2023-01-01T15:38:47.426Z,80.85
2023-01-01T15:41:33.673Z,81.12
2023-01-01T15:44:08.467Z,80.94
2023-01-01T15:46:36.004Z,81.12
2023-01-01T15:49:04.139Z,81.15
2023-01-01T15:51:31.938Z,81.43
2023-01-01T15:54:01.659Z,81.18
2023-01-01T15:56:30.873Z,81.49
2023-01-01T15:59:08.751Z,81.63
2023-01-01T16:01:39.361Z,81.40
2023-01-01T16:04:28.658Z,81.58
2023-01-01T16:06:58.142Z,81.66
2023-01-01T16:09:25.054Z,81.71
2023-01-01T16:12:02.113Z,81.82
2023-01-01T16:14:30.331Z,81.81
2023-01-01T16:17:01.124Z,81.88
2023-01-01T16:19:32.670Z,81.83
2023-01-01T16:22:00.801Z,81.97
2023-01-01T16:24:27.994Z,82.03
2023-01-01T16:26:56.145Z,81.90
2023-01-01T16:29:22.805Z,81.87
2023-01-01T16:31:50.884Z,81.83
2023-01-01T16:34:19.126Z,82.04
2023-01-01T16:36:47.725Z,81.90
2023-01-01T16:39:14.934Z,82.16
2023-01-01T16:41:43.646Z,82.05
2023-01-01T16:44:13.656Z,82.28
2023-01-01T16:46:41.336Z,82.14
2023-01-01T16:49:08.264Z,82.09
2023-01-01T16:51:40.642Z,82.12
2023-01-01T16:54:11.676Z,82.08
2023-01-01T16:56:39.839Z,82.22
2023-01-01T16:59:06.853Z,82.30
2023-01-01T17:01:35.064Z,82.14
2023-01-01T17:04:03.033Z,82.37
2023-01-01T17:06:31.401Z,82.27
2023-01-01T17:09:01.273Z,82.27
2023-01-01T17:11:31.054Z,82.37
2023-01-01T17:13:59.929Z,82.45
2023-01-01T17:16:32.918Z,82.44
2023-01-01T17:19:16.222Z,82.58
2023-01-01T17:21:46.775Z,82.49
2023-01-01T17:24:14.563Z,82.41
2023-01-01T17:26:42.591Z,82.44
2023-01-01T17:29:09.395Z,82.54
2023-01-01T17:31:38.361Z,82.51
2023-01-01T17:34:06.512Z,82.54
2023-01-01T17:36:34.107Z,82.64
2023-01-01T17:39:01.024Z,82.90
2023-01-01T17:41:28.000Z,82.79
2023-01-01T17:43:59.312Z,82.89
2023-01-01T17:46:28.692Z,82.79
2023-01-01T17:48:58.264Z,82.82
2023-01-01T17:51:27.246Z,83.08
2023-01-01T17:53:54.897Z,83.17
2023-01-01T17:56:23.645Z,83.08
2023-01-01T17:58:52.135Z,83.13
2023-01-01T18:01:34.547Z,83.13
2023-01-01T18:04:08.645Z,83.12
2023-01-01T18:06:41.413Z,83.21
2023-01-01T18:09:11.451Z,83.25
2023-01-01T18:11:39.481Z,83.32
2023-01-01T18:14:07.566Z,83.46
2023-01-01T18:16:35.939Z,83.34
2023-01-01T18:19:05.494Z,83.44
2023-01-01T18:21:34.301Z,83.39
2023-01-01T18:24:02.312Z,83.52
2023-01-01T18:26:31.357Z,83.60
2023-01-01T18:29:00.037Z,83.50
2023-01-01T18:31:28.106Z,83.70
2023-01-01T18:33:55.933Z,83.60
2023-01-01T18:36:24.628Z,83.54
2023-01-01T18:38:56.317Z,83.75
2023-01-01T18:41:31.326Z,83.71
2023-01-01T18:44:00.382Z,83.85
2023-01-01T18:46:28.752Z,83.64
2023-01-01T18:48:59.413Z,83.72
2023-01-01T18:51:27.124Z,83.62
2023-01-01T18:53:58.887Z,83.81
2023-01-01T18:56:26.145Z,83.71
2023-01-01T18:58:57.682Z,83.81
2023-01-01T19:01:26.402Z,83.79
2023-01-01T19:04:00.683Z,83.85
2023-01-01T19:06:29.936Z,83.77
2023-01-01T19:09:02.892Z,84.01
2023-01-01T19:11:30.783Z,83.73
2023-01-01T19:14:02.746Z,84.12
2023-01-01T19:16:32.880Z,83.96
2023-01-01T19:19:10.487Z,84.10
2023-01-01T19:21:39.758Z,84.24
2023-01-01T19:24:11.549Z,84.01
2023-01-01T19:26:42.558Z,84.14
2023-01-01T19:29:24.256Z,84.38
2023-01-01T19:31:55.216Z,84.20
2023-01-01T19:34:24.129Z,84.61
2023-01-01T19:36:51.618Z,84.49
2023-01-01T19:39:19.359Z,84.58
2023-01-01T19:41:47.707Z,84.61
2023-01-01T19:44:19.869Z,84.87
2023-01-01T19:46:51.475Z,84.96
2023-01-01T19:49:19.252Z,85.09
2023-01-01T19:51:47.461Z,85.31
2023-01-01T19:54:14.224Z,85.48
2023-01-01T19:56:42.357Z,85.60
2023-01-01T19:59:09.087Z,85.48
2023-01-01T20:01:37.511Z,85.38
2023-01-01T20:04:05.880Z,85.73
2023-01-01T20:06:36.511Z,85.70
2023-01-01T20:09:06.015Z,85.73
2023-01-01T20:11:33.287Z,85.71
2023-01-01T20:14:01.488Z,85.84
2023-01-01T20:16:28.331Z,86.03
2023-01-01T20:18:55.094Z,85.80
2023-01-01T20:21:41.967Z,86.01
2023-01-01T20:24:09.118Z,86.04
2023-01-01T20:26:36.226Z,85.83
2023-01-01T20:29:21.195Z,85.95
2023-01-01T20:31:49.950Z,85.83
2023-01-01T20:34:17.251Z,85.86
2023-01-01T20:37:07.686Z,85.81
2023-01-01T20:39:39.350Z,85.74
2023-01-01T20:42:07.575Z,85.69
2023-01-01T20:44:36.086Z,85.65
2023-01-01T20:47:03.316Z,85.57
2023-01-01T20:49:30.363Z,85.58
2023-01-01T20:51:58.433Z,85.59
2023-01-01T20:54:25.379Z,85.58
2023-01-01T20:56:53.529Z,85.43
2023-01-01T20:59:38.993Z,85.40
2023-01-01T21:02:08.385Z,85.33
2023-01-01T21:04:40.088Z,85.08
2023-01-01T21:07:11.347Z,85.32
2023-01-01T21:09:39.340Z,85.08
2023-01-01T21:12:07.176Z,85.17
2023-01-01T21:14:35.396Z,84.94
2023-01-01T21:17:23.797Z,84.85
2023-01-01T21:19:52.177Z,85.04
2023-01-01T21:22:20.173Z,85.19
2023-01-01T21:24:53.708Z,84.92
2023-01-01T21:27:25.436Z,85.06
2023-01-01T21:29:54.479Z,85.10
2023-01-01T21:32:23.337Z,85.00
2023-01-01T21:34:53.912Z,84.82
2023-01-01T21:37:41.281Z,84.86
2023-01-01T21:40:26.909Z,84.81
2023-01-01T21:43:06.857Z,84.79
2023-01-01T21:45:36.052Z,84.94
2023-01-01T21:48:16.632Z,84.96
2023-01-01T21:50:46.425Z,84.55
2023-01-01T21:53:22.168Z,84.78
2023-01-01T21:55:53.999Z,84.77
2023-01-01T21:59:02.789Z,84.84
2023-01-01T22:01:36.810Z,84.47
2023-01-01T22:04:19.705Z,84.68
2023-01-01T22:06:49.520Z,84.70
2023-01-01T22:09:18.253Z,84.77
2023-01-01T22:11:46.134Z,84.57
2023-01-01T22:14:15.819Z,84.70
2023-01-01T22:16:44.937Z,84.57
2023-01-01T22:19:14.589Z,84.79
2023-01-01T22:21:43.088Z,84.72
2023-01-01T22:24:25.759Z,84.67
2023-01-01T22:26:53.779Z,84.61
2023-01-01T22:29:25.807Z,84.68
2023-01-01T22:31:59.318Z,84.62
2023-01-01T22:34:26.629Z,84.76
2023-01-01T22:36:53.853Z,84.73
2023-01-01T22:39:29.495Z,84.71
2023-01-01T22:41:56.855Z,84.80
2023-01-01T22:44:25.358Z,84.54
2023-01-01T22:46:53.065Z,84.67
2023-01-01T22:49:21.852Z,84.58
2023-01-01T22:51:51.773Z,84.54
2023-01-01T22:54:20.151Z,84.20
2023-01-01T22:56:47.531Z,84.10
2023-01-01T22:59:15.544Z,84.18
2023-01-01T23:01:42.600Z,84.05
2023-01-01T23:04:11.691Z,84.03
2023-01-01T23:06:38.908Z,84.06
2023-01-01T23:09:08.605Z,84.17
2023-01-01T23:11:37.131Z,84.28
2023-01-01T23:14:23.232Z,84.37
2023-01-01T23:16:51.243Z,84.60
2023-01-01T23:19:18.469Z,84.73
2023-01-01T23:21:46.935Z,84.69
2023-01-01T23:24:17.731Z,84.91
2023-01-01T23:26:45.409Z,84.74
2023-01-01T23:29:14.708Z,84.79
2023-01-01T23:31:41.869Z,85.04
2023-01-01T23:34:09.694Z,85.14
2023-01-01T23:36:38.607Z,85.24
2023-01-01T23:39:05.540Z,85.27
2023-01-01T23:41:33.647Z,85.38
2023-01-01T23:44:00.562Z,85.33
2023-01-01T23:46:27.807Z,85.47
2023-01-01T23:48:55.610Z,85.43
2023-01-01T23:51:23.955Z,85.58
2023-01-01T23:53:51.599Z,85.38
2023-01-01T23:56:19.577Z,85.41
2023-01-01T23:58:46.320Z,85.46
